Time;durP1;ratioP1;P1;durP2;ratioP2;P2;SDS_P1;SDS_P2;PMS_P1;PMS_P2;Temp;Humidity;BMP_temperature;BMP_pressure;BME280_temperature;BME280_humidity;BME280_pressure;Samples;Min_cycle;Max_cycle;Signal;HPM_P1;HPM_P2
2023/06/17 00:00:16;;;;;;;7.80;0.73;;;;;;;19.60;100.00;100745.16;2065926;28;20182;-64
2023/06/17 00:01:17;;;;;;;7.97;0.73;;;;;;;19.63;100.00;100746.97;2065956;28;20205;-64
2023/06/17 00:02:17;;;;;;;4.53;0.87;;;;;;;19.58;100.00;100748.47;2065965;28;20651;-64
2023/06/17 00:03:18;;;;;;;9.20;0.97;;;;;;;19.45;100.00;100719.91;2066080;28;20833;-63
2023/06/17 00:04:18;;;;;;;8.60;0.80;;;;;;;19.59;100.00;100744.38;2065606;28;20213;-64
2023/06/17 00:05:20;;;;;;;6.93;0.70;;;;;;;19.60;100.00;100745.16;2061076;28;20282;-63
2023/06/17 00:06:20;;;;;;;5.47;0.73;;;;;;;19.56;100.00;100742.56;2061849;28;20194;-63
2023/06/17 00:07:21;;;;;;;11.57;1.40;;;;;;;19.54;100.00;100742.28;2065726;28;20436;-63
2023/06/17 00:08:21;;;;;;;7.37;0.83;;;;;;;19.49;100.00;100740.16;2063578;28;20182;-63
2023/06/17 00:09:22;;;;;;;7.87;0.80;;;;;;;19.54;100.00;100738.72;2057825;28;20183;-63
2023/06/17 00:10:22;;;;;;;6.63;0.67;;;;;;;19.47;100.00;100739.09;2066095;28;20618;-63
2023/06/17 00:11:23;;;;;;;7.10;0.63;;;;;;;19.48;100.00;100735.81;2066004;28;20185;-64
2023/06/17 00:12:29;;;;;;;5.23;0.67;;;;;;;19.47;100.00;100739.88;2065538;28;20202;-64
2023/06/17 00:13:29;;;;;;;13.13;0.93;;;;;;;19.50;100.00;100744.50;2065784;28;20281;-63
2023/06/17 00:14:30;;;;;;;6.10;0.60;;;;;;;19.50;100.00;100740.94;2065774;28;20448;-63
2023/06/17 00:15:32;;;;;;;8.13;0.80;;;;;;;19.48;100.00;100737.84;2066082;28;20209;-63
2023/06/17 00:16:36;;;;;;;3.10;0.53;;;;;;;19.46;100.00;100738.34;2065464;28;20197;-63
2023/06/17 00:17:37;;;;;;;6.83;0.87;;;;;;;19.46;100.00;100743.97;2065705;28;20421;-63
2023/06/17 00:18:39;;;;;;;6.87;1.13;;;;;;;19.46;100.00;100734.75;2066020;28;20931;-63
2023/06/17 00:19:40;;;;;;;9.27;0.80;;;;;;;19.47;100.00;100734.28;2065837;28;20226;-63
2023/06/17 00:20:41;;;;;;;7.37;0.93;;;;;;;19.47;100.00;100739.88;2065885;28;20452;-64
2023/06/17 00:21:49;;;;;;;5.80;0.70;;;;;;;19.45;100.00;100733.97;2065790;28;20214;-63
2023/06/17 00:22:49;;;;;;;7.30;0.63;;;;;;;19.44;100.00;100734.47;2065739;28;20463;-63
2023/06/17 00:23:50;;;;;;;11.13;0.90;;;;;;;19.45;100.00;100736.03;2065696;28;20451;-63
2023/06/17 00:24:51;;;;;;;5.87;0.70;;;;;;;19.45;100.00;100733.97;2065342;28;20209;-63
2023/06/17 00:25:52;;;;;;;6.03;0.70;;;;;;;19.44;100.00;100738.06;2065829;28;20190;-63
2023/06/17 00:26:52;;;;;;;5.27;0.70;;;;;;;19.44;100.00;100732.44;2065638;28;20424;-63
2023/06/17 00:27:52;;;;;;;3.93;1.13;;;;;;;19.43;100.00;100730.09;2065841;28;20562;-63
2023/06/17 00:28:53;;;;;;;6.60;0.70;;;;;;;19.44;100.00;100735.25;2065963;28;20637;-63
2023/06/17 00:29:53;;;;;;;6.00;0.80;;;;;;;19.44;100.00;100729.63;2065591;28;20644;-63
2023/06/17 00:30:54;;;;;;;5.57;0.70;;;;;;;19.45;100.00;100730.41;2065429;28;20217;-63
2023/06/17 00:31:54;;;;;;;10.47;0.80;;;;;;;19.46;100.00;100735.53;2080882;28;20326;-63
2023/06/17 00:32:55;;;;;;;5.23;0.90;;;;;;;19.20;100.00;100703.72;2077901;28;20185;-63
2023/06/17 00:33:55;;;;;;;7.90;0.87;;;;;;;19.07;100.00;100668.78;2059761;28;20189;-64
2023/06/17 00:34:56;;;;;;;10.70;1.33;;;;;;;19.49;100.00;100730.97;2065645;28;20182;-63
2023/06/17 00:35:56;;;;;;;7.77;0.77;;;;;;;19.49;100.00;100728.91;2065946;28;20232;-63
2023/06/17 00:36:57;;;;;;;8.00;0.73;;;;;;;19.13;100.00;100669.66;2065442;28;20237;-63
2023/06/17 00:37:57;;;;;;;12.90;0.90;;;;;;;19.14;100.00;100669.13;2065575;28;20185;-63
2023/06/17 00:38:58;;;;;;;7.20;0.70;;;;;;;19.50;100.00;100724.84;2065511;28;20209;-64
2023/06/17 00:39:59;;;;;;;7.33;0.67;;;;;;;19.50;100.00;100724.09;2062051;28;20695;-63
2023/06/17 00:40:59;;;;;;;7.53;1.33;;;;;;;19.50;100.00;100724.09;2057161;28;20179;-63
2023/06/17 00:42:00;;;;;;;6.00;0.70;;;;;;;19.52;100.00;100727.16;2057526;28;20649;-63
2023/06/17 00:43:01;;;;;;;6.00;0.80;;;;;;;18.64;100.00;100591.06;2065669;28;20229;-63
2023/06/17 00:44:02;;;;;;;6.63;0.63;;;;;;;19.52;100.00;100724.34;2065758;28;20472;-63
2023/06/17 00:45:03;;;;;;;5.73;0.70;;;;;;;19.53;100.00;100734.31;2065464;28;20204;-64
2023/06/17 00:46:03;;;;;;;5.40;0.87;;;;;;;19.51;100.00;100728.44;2065784;28;20464;-63
2023/06/17 00:47:04;;;;;;;9.97;0.70;;;;;;;19.43;100.00;100714.03;2065296;28;20453;-63
2023/06/17 00:48:10;;;;;;;12.83;1.50;;;;;;;19.52;100.00;100730.75;2065686;28;20190;-63
2023/06/17 00:49:10;;;;;;;5.50;0.73;;;;;;;19.56;100.00;100724.94;2065554;28;20539;-63
2023/06/17 00:50:15;;;;;;;4.73;0.80;;;;;;;19.54;100.00;100741.53;2065789;28;20426;-63
2023/06/17 00:51:15;;;;;;;3.67;0.60;;;;;;;19.50;100.00;100730.47;2065601;28;20194;-63
2023/06/17 00:52:17;;;;;;;5.30;0.60;;;;;;;19.50;100.00;100724.09;2065642;28;20430;-63
2023/06/17 00:53:17;;;;;;;10.40;1.30;;;;;;;19.48;100.00;100733.00;2065499;28;20194;-63
2023/06/17 00:54:18;;;;;;;4.87;0.60;;;;;;;19.50;100.00;100732.50;2059101;28;20431;-63
2023/06/17 00:55:18;;;;;;;7.17;0.90;;;;;;;19.51;100.00;100731.25;2062535;28;20202;-63
2023/06/17 00:56:19;;;;;;;7.97;1.10;;;;;;;19.52;100.00;100727.16;2065397;28;20672;-64
2023/06/17 00:57:19;;;;;;;5.43;0.70;;;;;;;19.49;100.00;100722.53;2065456;28;20194;-63
2023/06/17 00:58:19;;;;;;;7.90;0.70;;;;;;;19.54;100.00;100728.22;2065521;28;20232;-64
2023/06/17 00:59:20;;;;;;;4.80;0.67;;;;;;;19.56;100.00;100727.75;2064576;28;20182;-63
2023/06/17 01:00:20;;;;;;;6.87;0.97;;;;;;;19.57;100.00;100729.28;2057802;28;20237;-64
2023/06/17 01:01:24;;;;;;;7.27;0.77;;;;;;;19.58;100.00;100725.19;2065386;28;20193;-64
2023/06/17 01:02:25;;;;;;;7.87;0.70;;;;;;;19.57;100.00;100723.66;2065368;28;20663;-63
2023/06/17 01:03:26;;;;;;;6.97;0.90;;;;;;;19.56;100.00;100728.53;2065624;28;20555;-64
2023/06/17 01:04:28;;;;;;;9.43;0.97;;;;;;;19.57;100.00;100729.28;2065339;28;20453;-64
2023/06/17 01:05:29;;;;;;;5.07;0.40;;;;;;;19.56;100.00;100722.91;2065719;28;20226;-63
2023/06/17 01:06:38;;;;;;;7.00;0.70;;;;;;;18.74;100.00;100606.53;2065049;28;20809;-64
2023/06/17 01:07:46;;;;;;;3.30;0.50;;;;;;;19.58;100.00;100725.19;2065752;28;20401;-64
2023/06/17 01:09:05;;;;;;;5.13;0.60;;;;;;;19.61;100.00;100716.56;2064981;28;20455;-63
2023/06/17 01:10:38;;;;;;;4.47;0.73;;;;;;;19.50;100.00;100716.41;2080663;28;20481;-64
2023/06/17 01:11:39;;;;;;;6.07;0.57;;;;;;;19.48;100.00;100713.31;2072592;28;20561;-64
2023/06/17 01:12:41;;;;;;;7.47;1.07;;;;;;;19.49;100.00;100714.09;2065326;28;20484;-64
2023/06/17 01:13:43;;;;;;;4.73;0.73;;;;;;;19.23;100.00;100677.47;2065253;28;20452;-64
2023/06/17 01:14:49;;;;;;;7.90;0.80;;;;;;;19.47;100.00;100716.63;2065440;28;21030;-64
2023/06/17 01:15:51;;;;;;;4.43;0.70;;;;;;;19.46;100.00;100715.09;2065460;28;20557;-64
2023/06/17 01:16:54;;;;;;;5.37;0.50;;;;;;;19.00;100.00;100639.09;2065281;28;20428;-64
2023/06/17 01:17:55;;;;;;;2.63;0.43;;;;;;;19.48;100.00;100721.75;2065406;28;20417;-65
2023/06/17 01:18:57;;;;;;;4.73;0.60;;;;;;;19.49;100.00;100714.09;2065118;28;20800;-64
2023/06/17 01:19:59;;;;;;;3.33;0.60;;;;;;;19.49;100.00;100717.69;2065432;28;20507;-63
2023/06/17 01:20:59;;;;;;;5.60;0.50;;;;;;;19.47;100.00;100711.78;2065321;28;20457;-64
2023/06/17 01:22:00;;;;;;;0.93;0.50;;;;;;;19.50;100.00;100705.16;2065291;28;20965;-64
2023/06/17 01:23:01;;;;;;;3.07;0.40;;;;;;;19.51;100.00;100711.56;2065022;28;20213;-64
2023/06/17 01:24:04;;;;;;;2.83;0.67;;;;;;;19.44;100.00;100701.50;2065296;28;20214;-64
2023/06/17 01:25:06;;;;;;;3.40;0.53;;;;;;;19.45;100.00;100711.47;2065007;28;20237;-64
2023/06/17 01:26:07;;;;;;;1.80;0.57;;;;;;;19.43;100.00;100710.44;2065513;28;20524;-64
2023/06/17 01:27:08;;;;;;;2.20;0.80;;;;;;;19.42;100.00;100709.66;2065114;28;20432;-64
2023/06/17 01:28:16;;;;;;;0.57;0.30;;;;;;;19.45;100.00;100705.09;2065598;28;20209;-64
2023/06/17 01:29:16;;;;;;;5.87;0.77;;;;;;;19.44;100.00;100709.94;2057666;28;20423;-64
2023/06/17 01:30:17;;;;;;;4.37;0.53;;;;;;;19.41;100.00;100713.75;2064543;28;20433;-64
2023/06/17 01:31:18;;;;;;;5.60;0.80;;;;;;;19.42;100.00;100714.50;2064786;28;20197;-64
2023/06/17 01:32:18;;;;;;;5.63;0.53;;;;;;;19.48;100.00;100716.13;2065190;28;20294;-64
2023/06/17 01:33:20;;;;;;;6.60;0.60;;;;;;;19.46;100.00;100718.69;2064882;28;20277;-64
2023/06/17 01:34:25;;;;;;;4.03;0.47;;;;;;;19.45;100.00;100711.47;2065244;28;20571;-63
2023/06/17 01:35:32;;;;;;;2.27;0.40;;;;;;;19.46;100.00;100709.47;2063787;28;20851;-64
2023/06/17 01:36:34;;;;;;;2.43;0.50;;;;;;;19.41;100.00;100702.50;2057690;28;20923;-64
2023/06/17 01:37:42;;;;;;;4.90;0.90;;;;;;;19.48;100.00;100709.72;2065408;28;20414;-64
2023/06/17 01:38:47;;;;;;;1.70;0.40;;;;;;;19.46;100.00;100720.69;2057345;28;20480;-64
2023/06/17 01:39:51;;;;;;;3.87;0.60;;;;;;;19.48;100.00;100709.72;2064926;28;20967;-64
2023/06/17 01:41:00;;;;;;;3.00;0.50;;;;;;;19.33;100.00;100680.91;2064633;28;20567;-63
2023/06/17 01:42:01;;;;;;;4.63;0.40;;;;;;;19.50;100.00;100712.84;2057652;28;20434;-64
2023/06/17 01:43:04;;;;;;;5.80;0.50;;;;;;;19.45;100.00;100703.06;2061961;28;20522;-64
2023/06/17 01:44:06;;;;;;;7.30;0.67;;;;;;;19.40;100.00;100711.44;2065370;28;20182;-64
2023/06/17 01:45:07;;;;;;;6.40;0.70;;;;;;;19.40;100.00;100709.38;2065093;28;20516;-64
2023/06/17 01:46:10;;;;;;;2.50;0.30;;;;;;;19.43;100.00;100716.84;2064741;28;20492;-63
2023/06/17 01:47:11;;;;;;;3.47;0.60;;;;;;;19.44;100.00;100714.81;2064989;28;20422;-64
2023/06/17 01:48:11;;;;;;;5.53;0.53;;;;;;;18.58;100.00;100579.00;2065324;28;20500;-64
2023/06/17 01:49:12;;;;;;;7.43;0.63;;;;;;;19.46;100.00;100715.09;2065121;28;20218;-65
2023/06/17 01:50:18;;;;;;;6.27;0.60;;;;;;;19.46;100.00;100715.09;2065196;28;20224;-64
2023/06/17 01:51:19;;;;;;;3.17;0.60;;;;;;;19.48;100.00;100710.50;2059310;28;20175;-64
2023/06/17 01:52:20;;;;;;;2.30;0.47;;;;;;;19.49;100.00;100711.31;2062071;28;20442;-64
2023/06/17 01:53:22;;;;;;;2.30;0.40;;;;;;;19.00;100.00;100627.84;2065100;28;20444;-64
2023/06/17 01:54:23;;;;;;;4.10;0.63;;;;;;;19.45;100.00;100714.28;2065179;28;20193;-64
2023/06/17 01:55:24;;;;;;;5.07;0.97;;;;;;;19.41;100.00;100708.13;2064840;28;20434;-64
2023/06/17 01:56:24;;;;;;;4.00;0.50;;;;;;;19.47;100.00;100717.41;2065417;28;20930;-63
2023/06/17 01:57:26;;;;;;;2.57;0.70;;;;;;;19.18;100.00;100666.91;2065140;28;20272;-64
2023/06/17 01:58:27;;;;;;;6.93;0.60;;;;;;;19.50;100.00;100704.41;2065130;28;20193;-63
2023/06/17 01:59:28;;;;;;;4.83;0.77;;;;;;;19.34;100.00;100688.09;2064781;28;20457;-64
2023/06/17 02:00:28;;;;;;;2.83;0.40;;;;;;;19.52;100.00;100708.28;2061336;28;20199;-64
2023/06/17 02:01:29;;;;;;;5.40;0.60;;;;;;;19.54;100.00;100710.59;2057377;28;20430;-64
2023/06/17 02:02:29;;;;;;;2.10;0.50;;;;;;;19.53;100.00;100707.00;2058175;28;20262;-63
2023/06/17 02:03:30;;;;;;;7.27;0.60;;;;;;;19.49;100.00;100705.69;2065161;28;20605;-65
2023/06/17 02:04:31;;;;;;;3.70;0.50;;;;;;;19.56;100.00;100705.25;2065343;28;20171;-63
2023/06/17 02:05:31;;;;;;;8.90;1.27;;;;;;;19.56;100.00;100708.84;2065084;28;20236;-65
2023/06/17 02:06:31;;;;;;;5.10;0.47;;;;;;;18.57;100.00;100549.41;2071076;28;20236;-64
2023/06/17 02:07:32;;;;;;;4.83;0.70;;;;;;;19.61;100.00;100716.56;2068334;28;20276;-64
2023/06/17 02:08:34;;;;;;;3.13;0.50;;;;;;;19.65;100.00;100716.34;2064817;28;20280;-64
2023/06/17 02:09:34;;;;;;;2.83;0.50;;;;;;;19.62;100.00;100706.09;2065101;28;20174;-64
2023/06/17 02:10:35;;;;;;;6.80;0.67;;;;;;;19.62;100.00;100709.69;2064998;28;20470;-64
2023/06/17 02:11:35;;;;;;;5.67;0.97;;;;;;;19.60;100.00;100703.00;2064798;28;20181;-64
2023/06/17 02:12:36;;;;;;;7.47;0.73;;;;;;;19.60;100.00;100703.00;2065156;28;20571;-64
2023/06/17 02:13:36;;;;;;;4.93;1.07;;;;;;;19.65;100.00;100717.13;2057891;28;20195;-63
2023/06/17 02:14:37;;;;;;;4.83;0.40;;;;;;;19.66;100.00;100707.41;2062642;28;20183;-64
2023/06/17 02:15:42;;;;;;;3.47;0.50;;;;;;;19.60;100.00;100703.75;2064917;28;20225;-64
2023/06/17 02:16:52;;;;;;;4.83;0.60;;;;;;;19.63;100.00;100710.44;2064812;28;20437;-65
2023/06/17 02:17:53;;;;;;;5.00;0.70;;;;;;;19.62;100.00;100711.72;2062114;28;20994;-64
2023/06/17 02:18:53;;;;;;;6.90;0.87;;;;;;;19.37;100.00;100665.41;2057212;28;20812;-64
2023/06/17 02:19:54;;;;;;;5.13;0.50;;;;;;;19.64;100.00;100707.13;2058663;28;20231;-64
2023/06/17 02:20:55;;;;;;;2.07;0.47;;;;;;;19.65;100.00;100710.75;2065181;28;20182;-63
2023/06/17 02:21:55;;;;;;;6.27;0.50;;;;;;;19.67;100.00;100708.19;2065176;28;20429;-64
2023/06/17 02:22:56;;;;;;;7.60;0.73;;;;;;;19.68;100.00;100702.09;2064624;28;20248;-64
2023/06/17 02:23:56;;;;;;;4.53;0.50;;;;;;;19.72;100.00;100699.06;2065012;28;20252;-65
2023/06/17 02:24:56;;;;;;;3.10;0.40;;;;;;;19.73;100.00;100703.41;2065153;28;20193;-65
2023/06/17 02:25:57;;;;;;;9.10;0.47;;;;;;;19.73;100.00;100698.56;2065184;28;20186;-63
2023/06/17 02:26:58;;;;;;;10.33;0.90;;;;;;;19.70;100.00;100718.47;2065049;28;20184;-64
2023/06/17 02:27:58;;;;;;;4.80;0.60;;;;;;;19.73;100.00;100704.19;2065130;28;20194;-64
2023/06/17 02:28:59;;;;;;;3.97;0.50;;;;;;;19.72;100.00;100701.88;2065123;28;20183;-64
2023/06/17 02:30:00;;;;;;;3.70;0.43;;;;;;;19.65;100.00;100686.19;2064849;28;20201;-64
2023/06/17 02:31:01;;;;;;;3.77;0.50;;;;;;;19.59;100.00;100679.72;2064874;28;20210;-64
2023/06/17 02:32:01;;;;;;;3.77;0.50;;;;;;;19.70;100.00;100696.72;2065023;28;20511;-64
2023/06/17 02:33:02;;;;;;;3.27;0.40;;;;;;;19.69;100.00;100697.22;2064775;28;20181;-64
2023/06/17 02:34:02;;;;;;;4.23;0.60;;;;;;;19.72;100.00;100693.44;2064191;28;20197;-64
2023/06/17 02:35:03;;;;;;;4.60;0.70;;;;;;;19.75;100.00;100700.88;2064890;28;20178;-63
2023/06/17 02:36:04;;;;;;;3.63;0.40;;;;;;;19.68;100.00;100690.84;2064692;28;20179;-63
2023/06/17 02:37:06;;;;;;;6.77;0.60;;;;;;;19.64;100.00;100684.66;2065055;28;20422;-64
2023/06/17 02:38:07;;;;;;;7.00;0.60;;;;;;;19.59;100.00;100693.78;2080597;28;20748;-64
2023/06/17 02:39:08;;;;;;;4.60;0.60;;;;;;;19.29;100.00;100649.47;2073713;28;20891;-64
2023/06/17 02:40:09;;;;;;;3.77;0.80;;;;;;;19.59;100.00;100702.22;2062194;28;20272;-64
2023/06/17 02:41:09;;;;;;;7.13;0.73;;;;;;;19.61;100.00;100698.94;2064995;28;20186;-64
2023/06/17 02:42:11;;;;;;;2.80;0.60;;;;;;;19.59;100.00;100695.84;2064999;28;20556;-64
2023/06/17 02:43:11;;;;;;;3.07;0.60;;;;;;;19.50;100.00;100693.16;2064998;28;20292;-64
2023/06/17 02:44:12;;;;;;;4.93;0.50;;;;;;;19.59;100.00;100709.91;2065157;28;20454;-65
2023/06/17 02:45:12;;;;;;;7.83;0.80;;;;;;;19.62;100.00;100708.91;2058074;28;20202;-64
2023/06/17 02:46:13;;;;;;;1.93;0.30;;;;;;;19.60;100.00;100697.38;2068440;28;20685;-64
2023/06/17 02:47:14;;;;;;;3.70;0.50;;;;;;;19.03;100.00;100614.88;2073230;28;20194;-63
2023/06/17 02:48:14;;;;;;;4.37;0.40;;;;;;;19.62;100.00;100701.25;2073175;28;20184;-64
2023/06/17 02:49:15;;;;;;;3.17;0.40;;;;;;;19.64;100.00;100707.13;2071647;28;20424;-64
2023/06/17 02:50:20;;;;;;;2.40;0.33;;;;;;;19.57;100.00;100696.31;2065019;28;20265;-64
2023/06/17 02:51:21;;;;;;;3.17;0.40;;;;;;;19.63;100.00;100702.00;2065190;28;20185;-64
2023/06/17 02:52:22;;;;;;;2.53;0.50;;;;;;;19.62;100.00;100706.88;2064896;28;20947;-63
2023/06/17 02:53:22;;;;;;;2.40;0.40;;;;;;;19.62;100.00;100703.28;2064844;28;20777;-63
2023/06/17 02:54:23;;;;;;;4.33;0.63;;;;;;;19.63;100.00;100702.00;2065087;28;20586;-64
2023/06/17 02:55:25;;;;;;;7.10;0.60;;;;;;;19.64;100.00;100707.13;2065164;28;20264;-65
2023/06/17 02:56:26;;;;;;;5.37;0.47;;;;;;;19.64;100.00;100706.34;2065066;28;20182;-64
2023/06/17 02:57:26;;;;;;;3.33;0.50;;;;;;;18.88;100.00;100574.84;2065180;28;20430;-64
2023/06/17 02:58:27;;;;;;;0.97;0.30;;;;;;;19.20;100.00;100622.25;2065106;28;20496;-64
2023/06/17 02:59:27;;;;;;;1.27;0.33;;;;;;;19.68;100.00;100707.72;2065223;28;20221;-64
2023/06/17 03:00:28;;;;;;;2.80;0.40;;;;;;;19.63;100.00;100705.59;2069798;28;20706;-64
2023/06/17 03:01:28;;;;;;;2.77;0.40;;;;;;;19.69;100.00;100698.00;2070251;28;20618;-64
2023/06/17 03:02:29;;;;;;;3.83;0.40;;;;;;;19.65;100.00;100693.88;2065112;28;20210;-64
2023/06/17 03:03:41;;;;;;;4.20;0.40;;;;;;;19.66;100.00;100701.78;2065072;28;20189;-64
2023/06/17 03:04:42;;;;;;;3.60;0.33;;;;;;;18.61;100.00;100533.09;2066528;28;20162;-64
2023/06/17 03:05:43;;;;;;;2.63;0.50;;;;;;;19.70;100.00;100702.34;2067917;28;20468;-64
2023/06/17 03:06:44;;;;;;;1.23;0.40;;;;;;;19.72;100.00;100707.50;2067796;28;20666;-63
2023/06/17 03:07:46;;;;;;;2.77;0.50;;;;;;;19.72;100.00;100702.66;2062280;28;20458;-64
2023/06/17 03:08:47;;;;;;;1.40;0.50;;;;;;;19.74;100.00;100704.94;2063574;28;20429;-64
2023/06/17 03:09:47;;;;;;;4.27;0.40;;;;;;;19.74;100.00;100702.13;2067550;28;20456;-64
2023/06/17 03:10:48;;;;;;;3.73;0.50;;;;;;;19.31;100.00;100649.75;2075070;28;20201;-64
2023/06/17 03:11:48;;;;;;;8.03;0.70;;;;;;;19.72;100.00;100697.03;2075346;28;20188;-64
2023/06/17 03:12:49;;;;;;;4.80;0.50;;;;;;;19.75;100.00;100710.09;2067786;28;20185;-64
2023/06/17 03:13:49;;;;;;;2.93;0.50;;;;;;;19.78;100.00;100706.28;2067638;28;20185;-64
2023/06/17 03:14:50;;;;;;;3.73;0.50;;;;;;;19.80;100.00;100711.44;2067667;28;20225;-64
2023/06/17 03:15:50;;;;;;;1.10;0.40;;;;;;;19.78;100.00;100711.91;2067642;28;20614;-63
2023/06/17 03:16:51;;;;;;;3.63;0.43;;;;;;;19.82;100.00;100715.31;2067749;28;20237;-64
2023/06/17 03:17:52;;;;;;;1.73;0.37;;;;;;;19.84;100.00;100714.78;2067741;28;20189;-64
2023/06/17 03:18:52;;;;;;;1.97;0.30;;;;;;;19.79;100.00;100705.03;2067771;28;20558;-64
2023/06/17 03:19:53;;;;;;;3.03;0.40;;;;;;;19.39;100.00;100636.81;2067564;28;20253;-64
2023/06/17 03:20:54;;;;;;;3.03;0.33;;;;;;;19.89;100.00;100722.50;2067626;28;20190;-64
2023/06/17 03:21:54;;;;;;;4.57;0.50;;;;;;;19.90;100.00;100721.28;2067806;28;20233;-63
2023/06/17 03:22:56;;;;;;;2.53;0.50;;;;;;;19.87;100.00;100720.22;2067763;28;20210;-64
2023/06/17 03:23:57;;;;;;;1.43;0.60;;;;;;;19.84;100.00;100709.94;2065193;28;20512;-64
2023/06/17 03:24:58;;;;;;;3.50;0.50;;;;;;;19.91;100.00;100725.63;2059714;28;20174;-64
2023/06/17 03:25:58;;;;;;;2.53;0.40;;;;;;;19.91;100.00;100726.38;2075205;28;21070;-64
2023/06/17 03:26:59;;;;;;;4.13;0.60;;;;;;;19.91;100.00;100723.56;2082363;28;20585;-64
2023/06/17 03:28:02;;;;;;;5.40;0.40;;;;;;;19.76;100.00;100703.19;2061506;28;20630;-64
2023/06/17 03:29:04;;;;;;;3.17;0.30;;;;;;;19.85;100.00;100717.09;2059811;28;20656;-64
2023/06/17 03:30:05;;;;;;;2.37;0.37;;;;;;;19.33;100.00;100655.63;2059639;28;20417;-63
2023/06/17 03:31:06;;;;;;;3.50;0.50;;;;;;;19.92;100.00;100729.97;2061976;28;20462;-64
2023/06/17 03:32:07;;;;;;;5.23;0.60;;;;;;;19.96;100.00;100733.34;2067497;28;20422;-63
2023/06/17 03:33:12;;;;;;;4.07;0.60;;;;;;;19.97;100.00;100729.28;2067738;28;20418;-64
2023/06/17 03:34:12;;;;;;;2.77;0.50;;;;;;;19.91;100.00;100715.13;2067750;28;20166;-64
2023/06/17 03:35:13;;;;;;;2.47;0.40;;;;;;;20.02;100.00;100729.34;2067752;28;20432;-63
2023/06/17 03:36:16;;;;;;;5.07;0.80;;;;;;;20.02;100.00;100725.75;2067715;28;20708;-64
2023/06/17 03:37:16;;;;;;;5.43;0.33;;;;;;;20.02;100.00;100723.72;2067768;28;20421;-64
2023/06/17 03:38:19;;;;;;;2.90;0.40;;;;;;;19.98;100.00;100720.34;2067714;28;20914;-64
2023/06/17 03:39:21;;;;;;;4.63;0.50;;;;;;;20.00;100.00;100723.41;2067541;28;20189;-64
2023/06/17 03:40:21;;;;;;;5.90;0.50;;;;;;;20.05;100.00;100719.13;2067663;28;21004;-63
2023/06/17 03:41:26;;;;;;;1.50;0.50;;;;;;;20.08;100.00;100723.78;2067729;28;20539;-63
2023/06/17 03:42:26;;;;;;;4.67;0.57;;;;;;;20.08;100.00;100724.56;2067637;28;20675;-64
2023/06/17 03:43:26;;;;;;;4.13;0.50;;;;;;;20.10;100.00;100722.03;2067595;28;20595;-64
2023/06/17 03:44:27;;;;;;;2.23;0.50;;;;;;;20.04;100.00;100731.63;2067771;28;20616;-64
2023/06/17 03:45:28;;;;;;;2.63;0.40;;;;;;;19.99;100.00;100696.56;2067540;28;20574;-64
2023/06/17 03:46:28;;;;;;;2.63;0.30;;;;;;;20.16;100.00;100722.09;2067614;28;20277;-64
2023/06/17 03:47:28;;;;;;;1.57;0.30;;;;;;;20.16;100.00;100727.72;2067788;28;20225;-63
2023/06/17 03:48:29;;;;;;;6.03;0.50;;;;;;;20.16;100.00;100722.84;2067510;28;20659;-63
2023/06/17 03:49:29;;;;;;;2.90;0.47;;;;;;;19.93;100.00;100684.50;2067691;28;20616;-64
2023/06/17 03:50:30;;;;;;;3.20;0.60;;;;;;;19.42;100.00;100610.53;2083271;28;20211;-64
2023/06/17 03:51:32;;;;;;;3.53;0.50;;;;;;;20.16;100.00;100716.47;2083357;28;20189;-65
2023/06/17 03:52:32;;;;;;;2.50;0.40;;;;;;;20.22;100.00;100729.31;2067533;28;20182;-64
2023/06/17 03:53:33;;;;;;;3.87;0.47;;;;;;;20.22;100.00;100731.38;2067707;28;20417;-63
2023/06/17 03:54:33;;;;;;;2.20;0.50;;;;;;;20.25;100.00;100728.31;2067503;28;20170;-63
2023/06/17 03:55:33;;;;;;;3.27;0.50;;;;;;;20.21;100.00;100715.75;2067686;28;20206;-64
2023/06/17 03:56:35;;;;;;;1.93;0.40;;;;;;;20.24;100.00;100726.00;2067499;28;20640;-65
2023/06/17 03:57:36;;;;;;;4.50;0.50;;;;;;;20.28;100.00;100730.16;2067701;28;20670;-64
2023/06/17 03:58:36;;;;;;;2.47;0.50;;;;;;;20.27;100.00;100725.78;2067743;28;20804;-63
2023/06/17 03:59:37;;;;;;;3.70;0.30;;;;;;;20.30;100.00;100732.47;2067714;28;20207;-63
2023/06/17 04:00:37;;;;;;;3.10;0.47;;;;;;;20.28;100.00;100726.56;2067755;28;20652;-64
2023/06/17 04:01:38;;;;;;;1.90;0.30;;;;;;;20.33;100.00;100723.81;2067757;28;20182;-64
2023/06/17 04:02:38;;;;;;;1.63;0.40;;;;;;;20.28;100.00;100718.91;2067507;28;20647;-64
2023/06/17 04:03:40;;;;;;;1.63;0.30;;;;;;;20.33;100.00;100734.28;2067697;28;20210;-64
2023/06/17 04:04:40;;;;;;;3.87;0.50;;;;;;;20.34;100.00;100730.19;2067675;28;20178;-64
2023/06/17 04:05:42;;;;;;;3.30;0.50;;;;;;;20.28;100.00;100720.94;2067700;28;20475;-64
2023/06/17 04:06:42;;;;;;;3.83;0.40;;;;;;;19.73;100.00;100638.75;2067638;28;20261;-64
2023/06/17 04:07:43;;;;;;;5.23;0.50;;;;;;;20.34;100.00;100738.66;2067713;28;20421;-64
2023/06/17 04:08:43;;;;;;;0.90;0.43;;;;;;;20.36;100.00;100736.13;2067599;28;20178;-63
2023/06/17 04:09:44;;;;;;;3.07;0.43;;;;;;;20.35;100.00;100737.38;2067677;28;20182;-64
2023/06/17 04:10:47;;;;;;;3.17;0.40;;;;;;;20.34;100.00;100733.81;2067663;28;20202;-64
2023/06/17 04:11:48;;;;;;;3.00;0.43;;;;;;;20.34;100.00;100738.66;2067693;28;20176;-63
2023/06/17 04:12:48;;;;;;;3.03;0.50;;;;;;;20.34;100.00;100739.44;2072513;28;20424;-64
2023/06/17 04:13:49;;;;;;;1.53;0.30;;;;;;;20.29;100.00;100731.69;2075740;28;20235;-64
2023/06/17 04:14:49;;;;;;;2.57;0.63;;;;;;;20.34;100.00;100741.47;2075732;28;20192;-64
2023/06/17 04:15:50;;;;;;;3.40;0.60;;;;;;;20.30;100.00;100736.06;2075172;28;20185;-64
2023/06/17 04:16:50;;;;;;;2.60;0.43;;;;;;;20.33;100.00;100740.72;2073508;28;20178;-64
2023/06/17 04:17:51;;;;;;;2.13;0.60;;;;;;;20.32;100.00;100736.31;2074484;28;20657;-64
2023/06/17 04:18:52;;;;;;;2.90;0.40;;;;;;;20.35;100.00;100740.19;2074503;28;20657;-63
2023/06/17 04:19:56;;;;;;;2.73;0.40;;;;;;;20.31;100.00;100737.59;2074333;28;20229;-64
2023/06/17 04:20:56;;;;;;;6.10;0.60;;;;;;;20.37;100.00;100743.28;2074365;28;20433;-64
2023/06/17 04:21:57;;;;;;;6.17;0.63;;;;;;;20.37;100.00;100744.03;2074447;28;20703;-64
2023/06/17 04:22:57;;;;;;;2.30;0.53;;;;;;;20.39;100.00;100741.53;2074431;28;20177;-64
2023/06/17 04:23:58;;;;;;;4.37;0.40;;;;;;;20.39;100.00;100741.53;2074565;28;20234;-64
2023/06/17 04:24:58;;;;;;;1.40;0.30;;;;;;;20.01;100.00;100679.19;2072926;28;20307;-64
2023/06/17 04:26:00;;;;;;;1.97;0.50;;;;;;;20.36;100.00;100739.69;2066405;28;20186;-64
2023/06/17 04:27:02;;;;;;;1.70;0.60;;;;;;;20.49;100.00;100750.56;2066286;28;20185;-63
2023/06/17 04:28:07;;;;;;;3.53;0.53;;;;;;;20.48;100.00;100743.41;2066403;28;20418;-63
2023/06/17 04:29:08;;;;;;;2.70;0.40;;;;;;;20.48;100.00;100744.19;2066267;28;20182;-64
2023/06/17 04:30:09;;;;;;;4.53;0.63;;;;;;;20.46;100.00;100754.41;2071092;28;20435;-64
2023/06/17 04:31:10;;;;;;;4.23;0.63;;;;;;;20.48;100.00;100746.22;2074041;28;20233;-64
2023/06/17 04:32:15;;;;;;;3.60;0.53;;;;;;;19.80;100.00;100652.38;2074281;28;20182;-63
2023/06/17 04:33:16;;;;;;;5.63;0.70;;;;;;;20.44;100.00;100745.66;2073241;28;20200;-63
2023/06/17 04:34:21;;;;;;;1.63;0.47;;;;;;;20.45;100.00;100747.97;2066248;28;20187;-64
2023/06/17 04:35:23;;;;;;;2.30;0.50;;;;;;;20.46;100.00;100741.06;2066077;28;20185;-64
2023/06/17 04:36:23;;;;;;;3.07;0.50;;;;;;;20.48;100.00;100754.66;2065545;28;20186;-64
2023/06/17 04:37:25;;;;;;;3.10;0.60;;;;;;;20.51;100.00;100748.81;2065988;28;20189;-64
2023/06/17 04:38:25;;;;;;;3.97;0.60;;;;;;;20.48;100.00;100752.63;2066037;28;20193;-64
2023/06/17 04:39:26;;;;;;;3.20;0.70;;;;;;;20.48;100.00;100752.63;2066010;28;20432;-64
2023/06/17 04:40:27;;;;;;;1.63;0.40;;;;;;;20.50;100.00;100752.91;2065769;28;20209;-63
2023/06/17 04:41:27;;;;;;;2.20;0.40;;;;;;;20.51;100.00;100756.47;2065307;28;20183;-64
2023/06/17 04:42:33;;;;;;;2.13;0.47;;;;;;;20.53;100.00;100749.06;2057248;28;20286;-64